Terminal Aerodrome Forecast
Issued by NWS Tuscon, AZ

Home | Current Version | Previous Version | Text Only | Print | Product List | Glossary On
Versions: 1 2 3 4 5 6 7 8 9 10 11 12 13 14
000
FTUS45 KTWC 241133
TAFTUS
TAF
KTUS 241133Z 2412/2512 15009KT P6SM SCT250
     FM241700 VRB03KT P6SM SCT250
     FM242000 32007KT P6SM SCT250
     FM250300 23004KT P6SM SCT250
     FM250700 15007KT P6SM BKN250=

USA.gov is the U.S. government's official web portal to all federal, state and local government web resources and services.